createdAt,value
2019-03-28T00:00:50.224Z,37.90
2019-03-28T00:03:23.466Z,37.90
2019-03-28T00:05:56.706Z,37.90
2019-03-28T00:08:29.973Z,37.90
2019-03-28T00:11:03.226Z,37.80
2019-03-28T00:13:36.486Z,37.70
2019-03-28T00:16:10.785Z,37.70
2019-03-28T00:18:44.240Z,37.70
2019-03-28T00:21:17.467Z,37.60
2019-03-28T00:24:13.339Z,38.40
2019-03-28T00:26:46.576Z,37.60
2019-03-28T00:29:19.847Z,37.50
2019-03-28T00:31:53.093Z,37.60
2019-03-28T00:34:26.365Z,37.50
2019-03-28T00:36:59.637Z,37.60
2019-03-28T00:39:32.894Z,37.70
2019-03-28T00:42:06.128Z,37.80
2019-03-28T00:44:39.395Z,37.90
2019-03-28T00:47:12.619Z,37.70
2019-03-28T00:49:45.909Z,38.10
2019-03-28T00:52:19.137Z,37.70
2019-03-28T00:54:52.391Z,37.70
2019-03-28T00:57:25.615Z,37.80
2019-03-28T00:59:58.949Z,37.90
2019-03-28T01:02:32.195Z,38.00
2019-03-28T01:05:05.731Z,38.00
2019-03-28T01:07:39.029Z,38.10
2019-03-28T01:10:12.305Z,38.10
2019-03-28T01:12:45.547Z,37.90
2019-03-28T01:15:18.795Z,37.90
2019-03-28T01:17:52.033Z,37.80
2019-03-28T01:20:25.278Z,37.60
2019-03-28T01:22:58.504Z,37.70
2019-03-28T01:25:31.761Z,37.60
2019-03-28T01:28:04.982Z,37.60
2019-03-28T01:30:39.324Z,37.50
2019-03-28T01:33:12.539Z,37.50
2019-03-28T01:35:46.851Z,37.60
2019-03-28T01:38:20.279Z,37.70
2019-03-28T01:40:53.708Z,37.80
2019-03-28T01:43:27.242Z,38.00
2019-03-28T01:46:00.651Z,38.10
2019-03-28T01:48:33.894Z,38.00
2019-03-28T01:51:07.137Z,38.10
2019-03-28T01:53:40.422Z,38.10
2019-03-28T01:56:13.668Z,38.00
2019-03-28T01:58:46.895Z,38.00
2019-03-28T02:01:20.126Z,37.80
2019-03-28T02:03:53.336Z,37.90
2019-03-28T02:06:26.587Z,37.80
2019-03-28T02:08:59.797Z,37.80
2019-03-28T02:11:33.062Z,38.00
2019-03-28T02:14:06.344Z,37.90
2019-03-28T02:16:39.603Z,38.10
2019-03-28T02:19:12.899Z,38.10
2019-03-28T02:21:46.149Z,38.10
2019-03-28T02:24:19.385Z,38.20
2019-03-28T02:26:52.612Z,38.20
2019-03-28T02:29:25.839Z,38.20
2019-03-28T02:31:59.084Z,38.30
2019-03-28T02:34:32.302Z,38.20
2019-03-28T02:37:05.553Z,38.10
2019-03-28T02:39:38.765Z,38.30
2019-03-28T02:42:12.011Z,38.20
2019-03-28T02:44:45.260Z,38.20
2019-03-28T02:47:18.510Z,38.20
2019-03-28T02:49:51.748Z,38.10
2019-03-28T02:52:24.987Z,38.00
2019-03-28T02:54:58.219Z,38.10
2019-03-28T02:57:40.805Z,38.10
2019-03-28T03:00:06.858Z,38.20
2019-03-28T03:02:41.372Z,38.20
2019-03-28T03:05:14.604Z,38.50
2019-03-28T03:07:47.862Z,38.50
2019-03-28T03:10:21.083Z,38.60
2019-03-28T03:12:54.332Z,38.50
2019-03-28T03:15:27.585Z,39.30
2019-03-28T03:18:00.834Z,38.60
2019-03-28T03:20:34.061Z,38.60
2019-03-28T03:23:07.305Z,38.50
2019-03-28T03:25:40.518Z,38.60
2019-03-28T03:28:13.758Z,38.50
2019-03-28T03:30:46.981Z,38.40
2019-03-28T03:33:20.216Z,38.40
2019-03-28T03:35:53.430Z,38.20
2019-03-28T03:38:26.673Z,38.20
2019-03-28T03:40:59.894Z,38.10
2019-03-28T03:43:33.136Z,38.20
2019-03-28T03:46:06.421Z,38.30
2019-03-28T03:48:39.672Z,38.30
2019-03-28T03:51:12.904Z,38.40
2019-03-28T03:53:46.137Z,38.30
2019-03-28T03:56:19.461Z,38.20
2019-03-28T03:58:52.679Z,38.20
2019-03-28T04:01:25.918Z,38.30
2019-03-28T04:03:59.189Z,38.30
2019-03-28T04:06:33.480Z,38.20
2019-03-28T04:09:08.135Z,38.20
2019-03-28T04:11:41.396Z,38.40
2019-03-28T04:14:14.697Z,38.40
2019-03-28T04:16:47.933Z,38.50
2019-03-28T04:19:21.183Z,38.60
2019-03-28T04:21:54.398Z,38.60
2019-03-28T04:24:27.642Z,38.50
2019-03-28T04:27:00.844Z,38.60
2019-03-28T04:29:34.096Z,38.50
2019-03-28T04:32:07.311Z,38.50
2019-03-28T04:34:40.597Z,38.40
2019-03-28T04:37:13.809Z,38.40
2019-03-28T04:39:47.052Z,38.40
2019-03-28T04:42:20.307Z,38.40
2019-03-28T04:44:53.517Z,38.40
2019-03-28T04:47:26.760Z,38.40
2019-03-28T04:50:00.030Z,38.40
2019-03-28T04:52:33.290Z,38.40
2019-03-28T04:55:06.960Z,38.40
2019-03-28T04:57:41.131Z,38.40
2019-03-28T05:00:14.686Z,38.50
2019-03-28T05:02:47.900Z,38.40
2019-03-28T05:05:21.137Z,38.40
2019-03-28T05:07:54.362Z,38.50
2019-03-28T05:10:27.600Z,38.40
2019-03-28T05:13:00.824Z,38.50
2019-03-28T05:15:34.082Z,38.40
2019-03-28T05:18:07.324Z,38.50
2019-03-28T05:20:40.719Z,38.50
2019-03-28T05:23:14.367Z,38.40
2019-03-28T05:25:47.777Z,38.40
2019-03-28T05:28:21.021Z,38.60
2019-03-28T05:30:54.265Z,38.60
2019-03-28T05:33:27.486Z,38.60
2019-03-28T05:36:00.728Z,38.60
2019-03-28T05:38:33.941Z,38.80
2019-03-28T05:41:07.189Z,39.00
2019-03-28T05:43:40.408Z,38.90
2019-03-28T05:46:13.685Z,39.10
2019-03-28T05:48:46.983Z,39.20
2019-03-28T05:51:20.225Z,39.20
2019-03-28T05:53:53.452Z,39.10
2019-03-28T05:56:26.713Z,39.20
2019-03-28T05:59:10.645Z,39.20
2019-03-28T06:01:36.436Z,39.20
2019-03-28T06:04:10.118Z,39.30
2019-03-28T06:06:44.244Z,39.30
2019-03-28T06:09:17.552Z,39.30
2019-03-28T06:11:52.965Z,39.60
2019-03-28T06:14:25.713Z,39.70
2019-03-28T06:16:58.961Z,39.80
2019-03-28T06:19:32.201Z,40.00
2019-03-28T06:22:07.101Z,39.80
2019-03-28T06:24:40.327Z,39.90
2019-03-28T06:27:13.582Z,39.80
2019-03-28T06:29:52.718Z,40.00
2019-03-28T06:32:26.058Z,40.00
2019-03-28T06:34:59.286Z,39.90
2019-03-28T06:37:32.670Z,40.00
2019-03-28T06:40:06.029Z,39.90
2019-03-28T06:42:39.264Z,39.90
2019-03-28T06:45:12.512Z,40.00
2019-03-28T06:47:45.795Z,40.00
2019-03-28T06:50:19.065Z,40.00
2019-03-28T06:52:52.315Z,40.00
2019-03-28T06:55:25.706Z,40.10
2019-03-28T06:57:59.188Z,40.00
2019-03-28T07:00:32.425Z,40.00
2019-03-28T07:03:05.682Z,40.10
2019-03-28T07:05:38.934Z,40.20
2019-03-28T07:08:12.210Z,40.40
2019-03-28T07:10:45.444Z,40.40
2019-03-28T07:13:18.701Z,40.50
2019-03-28T07:15:51.946Z,40.60
2019-03-28T07:18:25.205Z,40.80
2019-03-28T07:20:58.442Z,40.60
2019-03-28T07:23:31.712Z,40.80
2019-03-28T07:26:04.958Z,41.10
2019-03-28T07:28:38.360Z,41.40
2019-03-28T07:31:12.586Z,41.30
2019-03-28T07:33:46.100Z,41.70
2019-03-28T07:36:19.359Z,42.00
2019-03-28T07:38:52.621Z,41.90
2019-03-28T07:41:25.858Z,42.00
2019-03-28T07:43:59.229Z,42.00
2019-03-28T07:46:32.449Z,42.40
2019-03-28T07:49:05.724Z,42.30
2019-03-28T07:51:38.960Z,42.40
2019-03-28T07:54:13.307Z,42.30
2019-03-28T07:56:46.975Z,42.50
2019-03-28T07:59:20.244Z,42.30
2019-03-28T08:01:53.474Z,42.70
2019-03-28T08:04:26.800Z,42.60
2019-03-28T08:07:00.024Z,42.70
2019-03-28T08:09:36.939Z,43.00
2019-03-28T08:12:21.769Z,42.90
2019-03-28T08:14:44.242Z,43.30
2019-03-28T08:17:17.515Z,43.10
2019-03-28T08:19:50.841Z,43.30
2019-03-28T08:22:24.106Z,43.30
2019-03-28T08:24:57.332Z,43.30
2019-03-28T08:27:30.595Z,43.40
2019-03-28T08:30:17.229Z,43.40
2019-03-28T08:32:39.976Z,43.30
2019-03-28T08:35:15.061Z,43.60
2019-03-28T08:37:48.337Z,43.50
2019-03-28T08:40:39.436Z,43.40
2019-03-28T08:43:11.516Z,43.40
2019-03-28T08:45:44.791Z,43.60
2019-03-28T08:48:18.029Z,43.70
2019-03-28T08:50:51.255Z,43.80
2019-03-28T08:53:24.488Z,43.60
2019-03-28T08:55:57.736Z,43.60
2019-03-28T08:58:30.972Z,43.40
2019-03-28T09:01:05.958Z,43.00
2019-03-28T09:03:39.360Z,42.90
2019-03-28T09:06:12.682Z,42.80
2019-03-28T09:08:45.906Z,42.50
2019-03-28T09:11:21.471Z,42.40
2019-03-28T09:13:54.333Z,42.00
2019-03-28T09:16:27.572Z,41.90
2019-03-28T09:19:00.850Z,42.00
2019-03-28T09:21:34.157Z,41.70
2019-03-28T09:24:07.487Z,41.50
2019-03-28T09:26:40.733Z,42.20
2019-03-28T09:29:14.065Z,41.60
2019-03-28T09:31:47.320Z,41.40
2019-03-28T09:34:20.860Z,41.30
2019-03-28T09:36:54.110Z,41.30
2019-03-28T09:39:27.371Z,41.50
2019-03-28T09:42:00.612Z,41.30
2019-03-28T09:44:33.867Z,41.40
2019-03-28T09:47:07.091Z,41.20
2019-03-28T09:49:40.375Z,41.00
2019-03-28T09:52:13.626Z,40.80
2019-03-28T09:54:46.894Z,41.10
2019-03-28T09:57:20.128Z,41.30
2019-03-28T09:59:53.406Z,42.10
2019-03-28T10:02:26.643Z,41.40
2019-03-28T10:05:00.049Z,41.30
2019-03-28T10:07:33.268Z,41.40
2019-03-28T10:10:09.163Z,41.20
2019-03-28T10:12:44.136Z,41.20
2019-03-28T10:15:16.605Z,41.00
2019-03-28T10:17:50.927Z,40.60
2019-03-28T10:20:24.331Z,41.30
2019-03-28T10:22:57.581Z,40.70
2019-03-28T10:25:30.814Z,40.90
2019-03-28T10:28:04.036Z,40.80
2019-03-28T10:30:49.667Z,40.90
2019-03-28T10:33:22.936Z,40.60
2019-03-28T10:35:56.685Z,40.20
2019-03-28T10:38:30.225Z,39.80
2019-03-28T10:41:04.080Z,39.00
2019-03-28T10:43:37.316Z,38.80
2019-03-28T10:46:10.547Z,38.00
2019-03-28T10:48:43.819Z,37.30
2019-03-28T10:51:17.045Z,36.40
2019-03-28T10:53:50.285Z,35.80
2019-03-28T10:56:24.254Z,35.90
2019-03-28T10:58:57.792Z,35.60
2019-03-28T11:01:47.433Z,35.20
2019-03-28T11:04:05.982Z,34.80
2019-03-28T11:06:39.229Z,34.20
2019-03-28T11:09:12.466Z,34.30
2019-03-28T11:11:45.734Z,34.40
2019-03-28T11:14:19.048Z,34.30
2019-03-28T11:16:53.153Z,34.40
2019-03-28T11:19:26.382Z,34.90
2019-03-28T11:21:59.622Z,34.20
2019-03-28T11:24:32.846Z,34.90
2019-03-28T11:27:06.104Z,35.50
2019-03-28T11:29:39.320Z,35.20
2019-03-28T11:32:12.574Z,35.40
2019-03-28T11:34:45.828Z,35.40
2019-03-28T11:37:25.978Z,35.50
2019-03-28T11:39:54.035Z,35.90
2019-03-28T11:42:27.812Z,35.70
2019-03-28T11:45:01.234Z,35.90
2019-03-28T11:47:34.510Z,35.80
2019-03-28T11:50:08.734Z,35.90
2019-03-28T11:52:42.835Z,35.90
2019-03-28T11:55:16.305Z,35.80
2019-03-28T11:57:49.572Z,35.60
2019-03-28T12:00:22.826Z,35.30
2019-03-28T12:02:56.071Z,35.60
2019-03-28T12:05:29.389Z,35.60
2019-03-28T12:08:02.636Z,36.00
2019-03-28T12:10:35.874Z,36.10
2019-03-28T12:13:09.195Z,36.40
2019-03-28T12:15:42.438Z,36.40
2019-03-28T12:18:16.764Z,36.40
2019-03-28T12:20:49.988Z,36.40
2019-03-28T12:23:23.275Z,36.50
2019-03-28T12:25:56.696Z,36.90
2019-03-28T12:28:30.116Z,36.90
2019-03-28T12:31:03.304Z,37.10
2019-03-28T12:33:36.560Z,37.10
2019-03-28T12:36:09.862Z,36.90
2019-03-28T12:38:43.125Z,37.00
2019-03-28T12:41:16.363Z,37.10
2019-03-28T12:43:49.636Z,37.10
2019-03-28T12:46:25.588Z,37.20
2019-03-28T12:48:57.881Z,37.60
2019-03-28T12:51:31.120Z,37.70
2019-03-28T12:54:04.417Z,37.30
2019-03-28T12:56:38.079Z,37.30
2019-03-28T12:59:11.962Z,37.60
2019-03-28T13:01:46.751Z,37.40
2019-03-28T13:04:20.107Z,37.60
2019-03-28T13:06:53.391Z,37.60
2019-03-28T13:09:28.159Z,37.90
2019-03-28T13:12:01.544Z,37.80
2019-03-28T13:14:34.784Z,37.90
2019-03-28T13:17:08.002Z,37.50
2019-03-28T13:19:41.181Z,37.60
2019-03-28T13:22:14.497Z,38.30
2019-03-28T13:24:47.765Z,38.00
2019-03-28T13:27:21.070Z,37.90
2019-03-28T13:29:55.150Z,37.90
2019-03-28T13:32:41.073Z,38.70
2019-03-28T13:35:03.380Z,37.90
2019-03-28T13:37:36.621Z,37.60
2019-03-28T13:40:09.925Z,37.90
2019-03-28T13:42:43.131Z,37.90
2019-03-28T13:45:17.928Z,37.90
2019-03-28T13:47:54.181Z,37.90
2019-03-28T13:50:26.059Z,38.30
2019-03-28T13:52:59.285Z,38.80
2019-03-28T13:55:32.549Z,38.40
2019-03-28T13:58:05.824Z,38.30
2019-03-28T14:00:39.474Z,38.10
2019-03-28T14:03:12.690Z,38.10
2019-03-28T14:05:45.992Z,37.90
2019-03-28T14:08:19.362Z,37.70
2019-03-28T14:10:53.195Z,37.60
2019-03-28T14:13:26.650Z,37.90
2019-03-28T14:16:00.226Z,37.70
2019-03-28T14:18:35.970Z,37.00
2019-03-28T14:21:09.400Z,37.80
2019-03-28T14:23:42.951Z,37.80
2019-03-28T14:26:16.456Z,37.80
2019-03-28T14:28:50.437Z,38.00
2019-03-28T14:31:24.100Z,38.20
2019-03-28T14:33:57.783Z,38.40
2019-03-28T14:36:31.539Z,38.40
2019-03-28T14:39:06.558Z,38.60
2019-03-28T14:41:39.792Z,38.70
2019-03-28T14:44:13.104Z,38.70
2019-03-28T14:46:46.449Z,38.80
2019-03-28T14:49:19.946Z,38.80
2019-03-28T14:51:53.331Z,38.70
2019-03-28T14:54:26.929Z,38.70
2019-03-28T14:57:00.856Z,39.00
2019-03-28T14:59:34.724Z,39.30
2019-03-28T15:02:08.224Z,38.90
2019-03-28T15:04:41.459Z,38.80
2019-03-28T15:07:14.928Z,38.60
2019-03-28T15:09:48.260Z,38.80
2019-03-28T15:12:21.965Z,38.80
2019-03-28T15:14:55.314Z,38.80
2019-03-28T15:17:29.700Z,38.90
2019-03-28T15:20:03.352Z,39.00
2019-03-28T15:22:36.699Z,39.00
2019-03-28T15:25:10.219Z,39.20
2019-03-28T15:27:43.519Z,39.10
2019-03-28T15:30:16.998Z,39.10
2019-03-28T15:32:50.317Z,39.00
2019-03-28T15:35:23.884Z,39.00
2019-03-28T15:37:58.177Z,39.20
2019-03-28T15:40:31.408Z,39.60
2019-03-28T15:43:04.666Z,39.40
2019-03-28T15:45:39.014Z,39.40
2019-03-28T15:48:13.498Z,39.30
2019-03-28T15:50:47.699Z,39.40
2019-03-28T15:53:21.297Z,39.30
2019-03-28T15:55:55.021Z,39.50
2019-03-28T15:58:28.595Z,39.40
2019-03-28T16:01:04.785Z,39.50
2019-03-28T16:03:51.997Z,39.60
2019-03-28T16:06:13.384Z,39.70
2019-03-28T16:08:46.915Z,39.60
2019-03-28T16:11:20.398Z,39.70
2019-03-28T16:13:55.448Z,39.70
2019-03-28T16:16:29.884Z,39.70
2019-03-28T16:19:03.363Z,39.70
2019-03-28T16:21:37.225Z,39.70
2019-03-28T16:24:10.672Z,39.70
2019-03-28T16:26:44.324Z,39.90
2019-03-28T16:29:18.367Z,39.90
2019-03-28T16:31:52.845Z,39.80
2019-03-28T16:34:26.578Z,39.70
2019-03-28T16:36:59.801Z,39.90
2019-03-28T16:39:33.083Z,39.80
2019-03-28T16:42:06.322Z,39.10
2019-03-28T16:44:39.560Z,39.60
2019-03-28T16:47:12.786Z,39.80
2019-03-28T16:49:46.056Z,39.90
2019-03-28T16:52:19.276Z,40.00
2019-03-28T16:54:53.550Z,39.80
2019-03-28T16:57:26.980Z,39.90
2019-03-28T17:00:00.395Z,39.90
2019-03-28T17:02:34.862Z,40.00
2019-03-28T17:05:08.684Z,39.80
2019-03-28T17:07:41.904Z,39.70
2019-03-28T17:10:54.025Z,39.70
2019-03-28T17:13:27.243Z,39.70
2019-03-28T17:16:00.478Z,39.60
2019-03-28T17:18:33.764Z,39.70
2019-03-28T17:21:07.014Z,39.80
2019-03-28T17:23:40.265Z,39.80
2019-03-28T17:26:13.526Z,39.80
2019-03-28T17:28:46.863Z,40.00
2019-03-28T17:31:20.110Z,39.90
2019-03-28T17:33:53.343Z,40.00
2019-03-28T17:36:26.965Z,40.00
2019-03-28T17:39:00.409Z,40.00
2019-03-28T17:41:33.735Z,40.10
2019-03-28T17:44:07.865Z,40.00
2019-03-28T17:46:41.281Z,39.70
2019-03-28T17:49:14.539Z,40.10
2019-03-28T17:51:47.809Z,40.10
2019-03-28T17:54:21.033Z,40.20
2019-03-28T17:56:54.287Z,40.30
2019-03-28T17:59:27.528Z,40.40
2019-03-28T18:02:00.772Z,40.40
2019-03-28T18:04:47.201Z,40.40
2019-03-28T18:07:08.955Z,40.40
2019-03-28T18:09:42.171Z,40.40
2019-03-28T18:12:15.403Z,40.50
2019-03-28T18:14:49.617Z,40.50
2019-03-28T18:17:23.042Z,40.70
2019-03-28T18:19:56.254Z,40.70
2019-03-28T18:22:29.496Z,40.80
2019-03-28T18:25:02.703Z,40.80
2019-03-28T18:27:35.935Z,40.80
2019-03-28T18:30:09.393Z,40.80
2019-03-28T18:32:42.627Z,40.80
2019-03-28T18:35:15.840Z,40.90
2019-03-28T18:37:49.082Z,40.80
2019-03-28T18:40:22.300Z,40.80
2019-03-28T18:42:55.543Z,40.60
2019-03-28T18:45:28.751Z,40.90
2019-03-28T18:48:02.079Z,40.90
2019-03-28T18:50:35.329Z,40.90
2019-03-28T18:53:09.657Z,40.90
2019-03-28T18:55:42.864Z,40.90
2019-03-28T18:58:16.180Z,41.00
2019-03-28T19:00:49.403Z,41.10
2019-03-28T19:03:22.646Z,41.10
2019-03-28T19:05:55.873Z,41.20
2019-03-28T19:08:29.104Z,41.20
2019-03-28T19:11:02.329Z,41.10
2019-03-28T19:13:35.571Z,41.00
2019-03-28T19:16:08.794Z,41.10
2019-03-28T19:18:42.029Z,41.00
2019-03-28T19:21:15.251Z,41.00
2019-03-28T19:23:48.512Z,40.90
2019-03-28T19:26:21.734Z,41.00
2019-03-28T19:28:56.273Z,40.90
2019-03-28T19:31:30.836Z,40.90
2019-03-28T19:34:04.074Z,40.90
2019-03-28T19:36:37.312Z,40.90
2019-03-28T19:39:11.972Z,40.90
2019-03-28T19:41:45.192Z,40.80
2019-03-28T19:44:18.438Z,40.80
2019-03-28T19:46:51.727Z,40.80
2019-03-28T19:49:24.959Z,40.70
2019-03-28T19:51:58.315Z,40.70
2019-03-28T19:54:31.550Z,40.60
2019-03-28T19:57:04.769Z,40.60
2019-03-28T19:59:39.148Z,40.60
2019-03-28T20:02:14.189Z,40.70
2019-03-28T20:04:47.323Z,40.60
2019-03-28T20:07:22.158Z,40.60
2019-03-28T20:09:57.366Z,40.60
2019-03-28T20:12:31.141Z,40.70
2019-03-28T20:15:04.987Z,40.60
2019-03-28T20:17:38.232Z,40.70
2019-03-28T20:20:11.495Z,40.60
2019-03-28T20:22:45.039Z,40.60
2019-03-28T20:25:18.442Z,40.60
2019-03-28T20:27:51.759Z,40.60
2019-03-28T20:30:25.617Z,40.60
2019-03-28T20:32:58.933Z,40.60
2019-03-28T20:35:32.154Z,40.70
2019-03-28T20:38:05.415Z,40.90
2019-03-28T20:40:38.638Z,40.80
2019-03-28T20:43:11.954Z,41.00
2019-03-28T20:45:45.173Z,41.00
2019-03-28T20:48:18.428Z,41.00
2019-03-28T20:50:51.676Z,41.00
2019-03-28T20:53:24.932Z,41.10
2019-03-28T20:55:58.155Z,41.30
2019-03-28T20:58:31.335Z,41.20
2019-03-28T21:01:04.894Z,41.30
2019-03-28T21:03:38.459Z,41.40
2019-03-28T21:06:15.491Z,41.50
2019-03-28T21:08:47.237Z,41.50
2019-03-28T21:11:20.474Z,41.40
2019-03-28T21:13:53.721Z,41.40
2019-03-28T21:16:26.951Z,41.50
2019-03-28T21:19:00.261Z,41.40
2019-03-28T21:21:34.554Z,41.40
2019-03-28T21:24:07.795Z,41.50
2019-03-28T21:26:41.294Z,41.50
2019-03-28T21:29:14.636Z,41.60
2019-03-28T21:31:50.190Z,41.50
2019-03-28T21:34:22.791Z,41.50
2019-03-28T21:36:56.020Z,41.60
2019-03-28T21:39:29.263Z,41.60
2019-03-28T21:42:02.491Z,41.60
2019-03-28T21:44:35.739Z,41.60
2019-03-28T21:47:08.963Z,41.80
2019-03-28T21:49:42.279Z,41.70
2019-03-28T21:52:15.548Z,41.80
2019-03-28T21:54:48.861Z,41.80
2019-03-28T21:57:22.090Z,41.80
2019-03-28T21:59:55.359Z,41.80
2019-03-28T22:02:28.580Z,41.80
2019-03-28T22:05:01.825Z,41.80
2019-03-28T22:07:35.217Z,41.80
2019-03-28T22:10:09.646Z,41.90
2019-03-28T22:12:42.873Z,42.70
2019-03-28T22:15:16.120Z,41.90
2019-03-28T22:17:49.335Z,41.80
2019-03-28T22:20:22.941Z,41.90
2019-03-28T22:22:56.160Z,42.00
2019-03-28T22:25:29.400Z,42.00
2019-03-28T22:28:02.677Z,42.00
2019-03-28T22:30:35.943Z,42.10
2019-03-28T22:33:09.176Z,42.10
2019-03-28T22:35:42.350Z,42.10
2019-03-28T22:38:15.577Z,42.10
2019-03-28T22:40:48.823Z,42.00
2019-03-28T22:43:22.046Z,42.80
2019-03-28T22:45:55.291Z,42.00
2019-03-28T22:48:28.558Z,42.10
2019-03-28T22:51:01.791Z,42.20
2019-03-28T22:53:35.042Z,42.20
2019-03-28T22:56:08.284Z,42.20
2019-03-28T22:58:41.533Z,42.30
2019-03-28T23:01:14.825Z,42.30
2019-03-28T23:03:49.657Z,42.30
2019-03-28T23:06:23.028Z,42.30
2019-03-28T23:08:56.505Z,42.30
2019-03-28T23:11:29.767Z,42.40
2019-03-28T23:14:02.990Z,42.40
2019-03-28T23:16:36.238Z,42.50
2019-03-28T23:19:12.020Z,42.50
2019-03-28T23:21:44.404Z,42.60
2019-03-28T23:24:17.837Z,41.90
2019-03-28T23:26:51.151Z,42.30
2019-03-28T23:29:24.367Z,42.30
2019-03-28T23:31:57.659Z,42.50
2019-03-28T23:34:30.948Z,42.40
2019-03-28T23:37:04.226Z,42.60
2019-03-28T23:39:39.602Z,42.70
2019-03-28T23:42:13.825Z,42.70
2019-03-28T23:44:47.253Z,42.60
2019-03-28T23:47:20.536Z,42.70
2019-03-28T23:49:53.790Z,42.80
2019-03-28T23:52:27.979Z,42.90
2019-03-28T23:55:01.197Z,43.00
2019-03-28T23:57:34.448Z,42.90
